Loogootee, IN

10:11 AM EDT on septembrie 22, 2014 (GMT -0400)
Monroe County | Change Station
CLOSE
Current Station
Aeroport
Location: Bloomington,
Elevation: 846 ft
Nearby Weather Stations

Elev 846 ft 39.15 °N, 86.62 °W | Updated 18 minutes ago

Cer senin
Cer senin
54 °F
Feels Like 54 °F
N
12
Vânt variabil Vânt from NNE

astăzi
High -- | Low -- °F
--% Chance of Precip.
Ieri
High -- | Low -- °F
Precip. -- inch
7:35 AM 7:44 PM
Semilună în descreştere, 3% visible
Presiunea 30.25 inch
Vizibilitatea 10.0 mile
Nori Few 1600 ft
Nori risipiţi 2000 ft
Punctul de rouă 47 °F
Umiditatea 77%
Precipitaţii 0.00 inch
Adâncimea zăpezii Not available.
UV 2 out of 12
Pollen 5.40 out of 12
Calitatea aerului Not available.
Flu Activity Not available.
METAR KBMG 221353Z 03010KT 10SM FEW016 SCT020 12/08 A3026 RMK AO2 SLP244 T01220083

More Conditions Fewer Conditions

Presiunea 30.25 inch
Vizibilitatea 10.0 mile
Nori Few 1600 ft
Nori risipiţi 2000 ft
Punctul de rouă 47 °F
Umiditatea 77%
Precipitaţii 0.00 inch
Adâncimea zăpezii Not available.
UV 2 out of 12
Pollen 5.40 out of 12
Calitatea aerului Not available.
Flu Activity Not available.
METAR KBMG 221353Z 03010KT 10SM FEW016 SCT020 12/08 A3026 RMK AO2 SLP244 T01220083

More Conditions Fewer Conditions

10-Day Weather Forecast

Almanac

Astronomie

Sep. 22, 2014 Răsărit Apus
Timpul Actual 7:35 AM EDT 7:44 PM EDT
Crepusculul Civil 7:08 AM EDT 8:11 PM EDT
Crepusculul nautic 6:37 AM EDT 8:42 PM EDT
Răsărit Astronomic 6:06 AM EDT 9:13 PM EDT
Luna 6:04 AM EDT 6:51 PM EDT
Durata zilei lumină 13h 02m
Lungimea zilei
12h 09m
Tomorrow will be 2m 29s shorter.
Semilună în descreştere, 3% of the Moon is Illuminated
astăzi
Semilună în descreştere
Sep 24
New
Oct 1
Primul pătrar
Oct 8
Lună plină
Oct 15
Ultimul pătrar

Extremele de azi

State Highs State Lows

Community

WunderPhotos

Upload Photos

1,755,444 photos uploaded!

WunderBlogs® & News

By Dr. Jeff Masters
Director of Meteorology, Weather Underground
By Kari Strenfel
Meteorologist, Weather Underground
By Christopher C. Burt
Weather Historian, Weather Underground
September 22, 2014
September 22, 2014
September 22, 2014

Nearby

Adâncimea zapezii

Station Depth Elevation
No new snow has been reported.

Earthquake Activity

Oraş Distance Mag. Time & Date
No recent earthquake activity has been reported nearby.
Minimum magnitude displayed is 2.5.

Coastal Water Temperatures

Locul Temperatura
No Stations Reporting

Nearby Weather Stations